Time;durP1;ratioP1;P1;durP2;ratioP2;P2;SDS_P1;SDS_P2;PMS_P1;PMS_P2;Temp;Humidity;BMP_temperature;BMP_pressure;BME280_temperature;BME280_humidity;BME280_pressure;Samples;Min_cycle;Max_cycle;Signal;HPM_P1;HPM_P2
2023/01/06 00:00:36;;;;;;;5.07;2.78;;;8.20;99.90;;;;;;5065669;28;20227;-77
2023/01/06 00:03:25;;;;;;;4.07;2.25;;;8.20;99.90;;;;;;5087491;28;20313;-78
2023/01/06 00:05:57;;;;;;;5.65;2.55;;;8.20;99.90;;;;;;5100949;28;20242;-77
2023/01/06 00:08:25;;;;;;;3.10;1.98;;;8.20;99.90;;;;;;5100478;28;20306;-76
2023/01/06 00:10:52;;;;;;;2.17;1.60;;;8.20;99.90;;;;;;5099556;28;20254;-77
2023/01/06 00:13:20;;;;;;;3.33;1.50;;;8.10;99.90;;;;;;5093125;28;20563;-76
2023/01/06 00:15:54;;;;;;;2.50;2.00;;;8.20;99.90;;;;;;5092225;28;20243;-76
2023/01/06 00:18:30;;;;;;;3.40;2.05;;;8.20;99.90;;;;;;5086206;28;20310;-77
2023/01/06 00:21:15;;;;;;;4.70;2.05;;;8.20;99.90;;;;;;5108576;28;20219;-78
2023/01/06 00:23:42;;;;;;;1.83;1.55;;;8.30;99.90;;;;;;5102727;28;20738;-78
2023/01/06 00:26:10;;;;;;;2.45;2.05;;;8.20;99.90;;;;;;5098315;28;20246;-78
2023/01/06 00:28:38;;;;;;;2.70;1.75;;;8.30;99.90;;;;;;5114324;28;20265;-77
2023/01/06 00:31:07;;;;;;;4.15;1.90;;;8.30;99.90;;;;;;5084077;28;20227;-78
2023/01/06 00:33:38;;;;;;;6.07;2.50;;;8.30;99.90;;;;;;5098395;28;20227;-78
2023/01/06 00:36:08;;;;;;;6.13;2.83;;;8.30;99.90;;;;;;5102004;28;20218;-77
2023/01/06 00:38:36;;;;;;;3.35;2.47;;;8.30;99.90;;;;;;5106864;28;20664;-78
2023/01/06 00:42:02;;;;;;;4.82;2.13;;;8.40;99.90;;;;;;5095573;28;20223;-77
2023/01/06 00:44:05;;;;;;;4.90;2.28;;;8.40;99.90;;;;;;5087594;28;20581;-78
2023/01/06 00:46:34;;;;;;;3.08;2.35;;;8.40;99.90;;;;;;5100563;28;20222;-78
2023/01/06 00:49:02;;;;;;;4.45;3.05;;;8.40;99.90;;;;;;5097205;28;20227;-77
2023/01/06 00:51:32;;;;;;;2.97;1.73;;;8.40;99.90;;;;;;5078987;28;20215;-78
2023/01/06 00:54:02;;;;;;;4.90;2.53;;;8.40;99.90;;;;;;5104558;28;20592;-78
2023/01/06 00:56:29;;;;;;;2.30;1.73;;;8.50;99.90;;;;;;5100251;28;20221;-77
2023/01/06 00:58:56;;;;;;;2.35;1.77;;;8.50;99.90;;;;;;5089486;28;20573;-77
2023/01/06 01:01:24;;;;;;;2.53;1.83;;;8.50;99.90;;;;;;5099258;28;20246;-77
2023/01/06 01:03:51;;;;;;;4.13;2.30;;;8.50;99.90;;;;;;5103811;28;20311;-78
2023/01/06 01:06:44;;;;;;;3.50;1.83;;;8.50;99.90;;;;;;5108582;28;20607;-78
2023/01/06 01:09:14;;;;;;;4.07;2.45;;;8.50;99.90;;;;;;5091561;28;20227;-77
2023/01/06 01:14:30;;;;;;;4.85;2.75;;;8.50;99.90;;;;;;5103100;28;20849;-77
2023/01/06 01:16:58;;;;;;;4.45;2.67;;;8.50;99.90;;;;;;5098727;28;20936;-77
2023/01/06 01:19:26;;;;;;;3.50;2.58;;;8.50;99.90;;;;;;5097452;28;20288;-76
2023/01/06 01:21:53;;;;;;;5.38;2.50;;;8.50;99.90;;;;;;5103414;28;20223;-78
2023/01/06 01:24:22;;;;;;;3.15;2.92;;;8.50;99.90;;;;;;5100085;28;20215;-76
2023/01/06 01:26:56;;;;;;;3.22;2.30;;;8.50;99.90;;;;;;5107028;28;20318;-76
2023/01/06 01:29:23;;;;;;;4.13;2.50;;;8.40;99.90;;;;;;5097882;28;20645;-77
2023/01/06 01:31:57;;;;;;;2.20;2.10;;;8.40;99.90;;;;;;5110406;28;20211;-79
2023/01/06 01:34:24;;;;;;;3.28;2.13;;;8.40;99.90;;;;;;5085876;28;20222;-77
2023/01/06 01:36:53;;;;;;;4.88;2.30;;;8.40;99.90;;;;;;5089632;28;20301;-77
2023/01/06 01:39:31;;;;;;;5.60;2.30;;;8.40;99.90;;;;;;5086449;28;20627;-77
2023/01/06 01:42:03;;;;;;;3.75;2.42;;;8.40;99.90;;;;;;5088109;28;20234;-77
2023/01/06 01:44:56;;;;;;;5.45;2.40;;;8.40;99.90;;;;;;5100443;28;20337;-78
2023/01/06 01:47:43;;;;;;;2.72;1.92;;;8.40;99.90;;;;;;5110321;28;20313;-77
2023/01/06 01:50:43;;;;;;;4.25;2.78;;;8.40;99.90;;;;;;5092567;28;20238;-78
2023/01/06 01:53:15;;;;;;;2.47;2.00;;;8.40;99.90;;;;;;5091708;28;20265;-79
2023/01/06 01:56:06;;;;;;;3.72;2.30;;;8.40;99.90;;;;;;5098598;28;20827;-77
2023/01/06 01:58:44;;;;;;;4.07;2.97;;;8.40;99.90;;;;;;5085780;28;20309;-78
2023/01/06 02:01:26;;;;;;;3.40;2.40;;;8.30;99.90;;;;;;5098634;28;20227;-78
2023/01/06 02:03:54;;;;;;;3.17;2.88;;;8.30;99.90;;;;;;5091527;28;20269;-78
2023/01/06 02:06:23;;;;;;;5.63;2.70;;;8.30;99.90;;;;;;5097037;28;20859;-78
2023/01/06 02:09:03;;;;;;;5.65;2.50;;;8.30;99.90;;;;;;5090743;28;20223;-77
2023/01/06 02:11:34;;;;;;;3.00;2.45;;;8.30;99.90;;;;;;5107741;28;20225;-77
2023/01/06 02:17:18;;;;;;;4.35;2.67;;;8.30;99.90;;;;;;5042033;28;20312;-77
2023/01/06 02:20:25;;;;;;;4.03;2.03;;;8.30;99.90;;;;;;5097372;28;20333;-78
2023/01/06 02:23:22;;;;;;;5.40;2.08;;;8.30;99.90;;;;;;5073470;28;20359;-77
2023/01/06 02:26:14;;;;;;;5.75;2.33;;;8.30;99.90;;;;;;5095334;28;20227;-77
2023/01/06 02:29:09;;;;;;;5.95;3.47;;;8.30;99.90;;;;;;5106050;28;20348;-77
2023/01/06 02:31:54;;;;;;;4.28;2.85;;;8.30;99.90;;;;;;5100985;28;20301;-77
2023/01/06 02:34:30;;;;;;;2.88;2.20;;;8.30;99.90;;;;;;5098293;28;20228;-77
2023/01/06 02:37:07;;;;;;;6.93;2.80;;;8.20;99.90;;;;;;5112324;28;20222;-77
2023/01/06 02:39:45;;;;;;;5.32;2.83;;;8.20;99.90;;;;;;5107572;28;20667;-76
2023/01/06 02:42:20;;;;;;;5.60;4.72;;;8.20;99.90;;;;;;5092546;28;20637;-77
2023/01/06 02:44:55;;;;;;;7.68;3.08;;;8.20;99.90;;;;;;5091464;28;20295;-77
2023/01/06 02:47:33;;;;;;;5.15;2.55;;;8.20;99.90;;;;;;5108174;28;20709;-77
2023/01/06 02:50:12;;;;;;;3.78;2.17;;;8.20;99.90;;;;;;5101229;28;20253;-77
2023/01/06 02:52:46;;;;;;;8.02;2.70;;;8.20;99.90;;;;;;5094050;28;20226;-77
2023/01/06 02:55:22;;;;;;;5.47;2.65;;;8.20;99.90;;;;;;5110772;28;20226;-76
2023/01/06 02:57:53;;;;;;;3.50;2.05;;;8.20;99.90;;;;;;5114641;28;20227;-77
2023/01/06 03:00:27;;;;;;;5.95;2.78;;;8.20;99.90;;;;;;5102422;28;20237;-76
2023/01/06 03:02:59;;;;;;;3.53;1.73;;;8.20;99.90;;;;;;5113163;28;20221;-78
2023/01/06 03:05:28;;;;;;;3.95;1.92;;;8.20;99.90;;;;;;5107714;28;20832;-79
2023/01/06 03:08:00;;;;;;;2.33;1.90;;;8.20;99.90;;;;;;5101300;28;20219;-79
2023/01/06 03:10:29;;;;;;;3.47;2.00;;;8.20;99.90;;;;;;5114130;28;20226;-79
2023/01/06 03:13:04;;;;;;;3.63;2.10;;;8.10;99.90;;;;;;5103499;28;20222;-78
2023/01/06 03:15:31;;;;;;;6.32;3.60;;;8.10;99.90;;;;;;5108309;28;20219;-77
2023/01/06 03:18:00;;;;;;;4.50;1.73;;;8.10;99.90;;;;;;5106386;28;20229;-77
2023/01/06 03:20:29;;;;;;;2.10;1.80;;;8.10;99.90;;;;;;5076955;28;20231;-77
2023/01/06 03:22:56;;;;;;;3.65;2.08;;;8.00;99.90;;;;;;5110891;28;20706;-77
2023/01/06 03:25:24;;;;;;;2.75;1.80;;;8.00;99.90;;;;;;5101449;28;20319;-78
2023/01/06 03:27:51;;;;;;;1.73;1.63;;;8.10;99.90;;;;;;5086497;28;20310;-77
2023/01/06 03:30:24;;;;;;;5.28;2.33;;;8.00;99.90;;;;;;5093965;28;20219;-78
2023/01/06 03:32:59;;;;;;;3.55;1.73;;;8.00;99.90;;;;;;5106403;28;20295;-78
2023/01/06 03:35:47;;;;;;;3.25;1.88;;;8.00;99.90;;;;;;5103924;28;20222;-78
2023/01/06 03:38:23;;;;;;;6.88;1.95;;;8.00;99.90;;;;;;5099895;28;20219;-77
2023/01/06 03:40:58;;;;;;;1.55;1.40;;;8.00;99.90;;;;;;5097915;28;20644;-77
2023/01/06 03:43:29;;;;;;;3.38;1.55;;;8.10;99.90;;;;;;5106442;28;20222;-77
2023/01/06 03:46:11;;;;;;;1.95;1.75;;;8.00;99.90;;;;;;5102214;28;20226;-77
2023/01/06 03:48:49;;;;;;;6.00;2.55;;;8.00;99.90;;;;;;5098779;28;20314;-77
2023/01/06 03:51:37;;;;;;;5.78;2.90;;;8.00;99.90;;;;;;5088398;28;20270;-77
2023/01/06 03:54:09;;;;;;;2.35;1.65;;;8.00;99.90;;;;;;5101711;28;20223;-77
2023/01/06 03:56:41;;;;;;;2.90;2.05;;;8.00;99.90;;;;;;5100583;28;20222;-77
2023/01/06 03:59:14;;;;;;;2.65;1.63;;;8.00;99.90;;;;;;5102589;28;20302;-78
2023/01/06 04:01:42;;;;;;;3.05;2.42;;;7.90;99.90;;;;;;5107009;28;20220;-77
2023/01/06 04:04:10;;;;;;;2.95;1.55;;;7.90;99.90;;;;;;5106186;28;20610;-77
2023/01/06 04:06:38;;;;;;;2.15;1.30;;;7.90;99.90;;;;;;5113187;28;20218;-77
2023/01/06 04:09:05;;;;;;;2.80;2.00;;;7.90;99.90;;;;;;5112988;28;20261;-77
2023/01/06 04:14:17;;;;;;;2.85;1.45;;;7.80;99.90;;;;;;5096522;28;20234;-77
2023/01/06 04:16:44;;;;;;;4.38;1.80;;;7.90;99.90;;;;;;5109938;28;20279;-76
2023/01/06 04:19:11;;;;;;;4.25;1.75;;;7.80;99.90;;;;;;5113653;28;20222;-77
2023/01/06 04:21:39;;;;;;;2.72;1.90;;;7.90;99.90;;;;;;5105285;28;20227;-77
2023/01/06 04:24:07;;;;;;;6.95;2.00;;;7.90;99.90;;;;;;5109666;28;20313;-78
2023/01/06 04:26:34;;;;;;;7.15;2.05;;;7.90;99.90;;;;;;5104246;28;20254;-78
2023/01/06 04:29:01;;;;;;;3.10;1.60;;;7.80;99.90;;;;;;5091245;28;20239;-78
2023/01/06 04:31:28;;;;;;;3.38;1.58;;;7.90;99.90;;;;;;5107452;28;20646;-78
2023/01/06 04:33:55;;;;;;;4.18;1.90;;;7.90;99.90;;;;;;5114976;28;20254;-77
2023/01/06 04:36:26;;;;;;;2.03;1.40;;;7.80;99.90;;;;;;5103224;28;20306;-78
2023/01/06 04:38:54;;;;;;;2.88;1.30;;;7.90;99.90;;;;;;5095164;28;20577;-77
2023/01/06 04:41:22;;;;;;;2.03;1.40;;;7.80;99.90;;;;;;5102590;28;20543;-78
2023/01/06 04:43:58;;;;;;;3.72;1.85;;;7.80;99.90;;;;;;5115450;28;20323;-77
2023/01/06 04:46:26;;;;;;;3.70;2.00;;;7.80;99.90;;;;;;5087157;28;20234;-78
2023/01/06 04:48:53;;;;;;;2.22;1.75;;;7.70;99.90;;;;;;5098509;28;20731;-78
2023/01/06 04:51:23;;;;;;;2.10;1.88;;;7.70;99.90;;;;;;5104854;28;20551;-77
2023/01/06 04:53:50;;;;;;;7.65;2.70;;;7.80;99.90;;;;;;5099079;28;20242;-77
2023/01/06 04:56:19;;;;;;;5.53;2.08;;;7.70;99.90;;;;;;5105493;28;20216;-78
2023/01/06 04:58:49;;;;;;;5.88;2.20;;;7.70;99.90;;;;;;5106711;28;20258;-77
2023/01/06 05:01:16;;;;;;;5.72;2.08;;;7.70;99.90;;;;;;5103114;28;20223;-77
2023/01/06 05:03:51;;;;;;;2.00;1.45;;;7.60;99.90;;;;;;5112108;28;20226;-77
2023/01/06 05:06:19;;;;;;;3.35;1.75;;;7.60;99.90;;;;;;5095088;28;20555;-78
2023/01/06 05:08:48;;;;;;;7.47;2.35;;;7.60;99.90;;;;;;5096231;28;20223;-78
2023/01/06 05:11:16;;;;;;;2.33;1.70;;;7.50;99.90;;;;;;5096413;28;20234;-77
2023/01/06 05:13:45;;;;;;;2.83;1.92;;;7.50;99.90;;;;;;5111445;28;20309;-77
2023/01/06 05:16:16;;;;;;;3.50;2.00;;;7.50;99.90;;;;;;5102041;28;20745;-77
2023/01/06 05:18:43;;;;;;;3.67;2.40;;;7.40;99.90;;;;;;5106783;28;20243;-77
2023/01/06 05:21:11;;;;;;;3.53;2.20;;;7.40;99.90;;;;;;5106120;28;20222;-77
2023/01/06 05:23:41;;;;;;;2.05;1.50;;;7.40;99.90;;;;;;5089476;28;20238;-77
2023/01/06 05:26:15;;;;;;;2.85;2.65;;;7.50;99.90;;;;;;5100512;28;20740;-78
2023/01/06 05:28:42;;;;;;;4.18;2.00;;;7.50;99.90;;;;;;5099908;28;20246;-77
2023/01/06 05:31:17;;;;;;;3.03;2.45;;;7.50;99.90;;;;;;5099854;28;20586;-79
2023/01/06 05:33:46;;;;;;;5.30;2.33;;;7.50;99.90;;;;;;5104517;28;20234;-78
2023/01/06 05:36:16;;;;;;;3.17;1.85;;;7.60;99.90;;;;;;5109636;28;20223;-78
2023/01/06 05:38:45;;;;;;;4.68;2.60;;;7.50;99.90;;;;;;5101895;28;20562;-78
2023/01/06 05:41:14;;;;;;;2.08;1.55;;;7.50;99.90;;;;;;5099702;28;20215;-78
2023/01/06 05:43:42;;;;;;;2.70;1.83;;;7.50;99.90;;;;;;5101708;28;20281;-78
2023/01/06 05:46:13;;;;;;;4.10;1.75;;;7.50;99.90;;;;;;5106313;28;20264;-78
2023/01/06 05:48:43;;;;;;;2.00;1.80;;;7.50;99.90;;;;;;5104332;28;20234;-79
2023/01/06 05:51:12;;;;;;;2.75;2.55;;;7.60;99.90;;;;;;5106255;28;20215;-78
2023/01/06 05:53:41;;;;;;;5.00;2.03;;;7.60;99.90;;;;;;5106178;28;20253;-79
2023/01/06 05:56:10;;;;;;;2.42;1.83;;;7.60;99.90;;;;;;5106744;28;20218;-79
2023/01/06 05:58:39;;;;;;;3.65;1.85;;;7.60;99.90;;;;;;5110656;28;20245;-78
2023/01/06 06:01:14;;;;;;;6.13;2.58;;;7.70;99.90;;;;;;5101261;28;20241;-79
2023/01/06 06:03:43;;;;;;;1.75;1.65;;;7.60;99.90;;;;;;5112234;28;20234;-79
2023/01/06 06:06:11;;;;;;;4.60;2.13;;;7.60;99.90;;;;;;5112871;28;20242;-78
2023/01/06 06:08:38;;;;;;;4.75;2.47;;;7.70;99.90;;;;;;5108626;28;20234;-78
2023/01/06 06:11:12;;;;;;;8.43;3.30;;;7.70;99.90;;;;;;5110192;28;20246;-79
2023/01/06 06:13:44;;;;;;;8.10;2.80;;;7.80;99.90;;;;;;5098649;28;20237;-79
2023/01/06 06:16:16;;;;;;;2.38;2.10;;;7.80;99.90;;;;;;5100538;28;20745;-77
2023/01/06 06:18:48;;;;;;;4.80;2.67;;;7.80;99.90;;;;;;5102835;28;20284;-78
2023/01/06 06:21:17;;;;;;;7.50;4.93;;;7.70;99.90;;;;;;5103053;28;20225;-78
2023/01/06 06:23:47;;;;;;;2.88;2.60;;;7.80;99.90;;;;;;5107440;28;20250;-78
2023/01/06 06:26:15;;;;;;;7.20;2.90;;;7.80;99.90;;;;;;5110353;28;20283;-78
2023/01/06 06:28:45;;;;;;;7.80;2.72;;;7.70;99.90;;;;;;5102215;28;20229;-78
2023/01/06 06:31:19;;;;;;;4.25;2.97;;;7.70;99.90;;;;;;5102448;28;20848;-78
2023/01/06 06:33:50;;;;;;;4.20;2.03;;;7.70;99.90;;;;;;5096570;28;20569;-78
2023/01/06 06:36:27;;;;;;;3.55;1.92;;;7.70;99.90;;;;;;5110326;28;20222;-77
2023/01/06 06:38:55;;;;;;;6.53;2.97;;;7.70;99.90;;;;;;5108255;28;20237;-78
2023/01/06 06:41:32;;;;;;;7.82;2.65;;;7.80;99.90;;;;;;5111307;28;20226;-78
2023/01/06 06:43:59;;;;;;;4.85;3.20;;;7.80;99.90;;;;;;5109695;28;20674;-77
2023/01/06 06:46:27;;;;;;;4.85;2.97;;;7.80;99.90;;;;;;5099706;28;20218;-77
2023/01/06 06:48:55;;;;;;;4.18;2.38;;;7.80;99.90;;;;;;5103184;28;20249;-78
2023/01/06 06:51:26;;;;;;;7.55;3.15;;;7.80;99.90;;;;;;5112710;28;20309;-78
2023/01/06 06:53:53;;;;;;;5.93;3.38;;;7.80;99.90;;;;;;5101305;28;20305;-77
2023/01/06 06:56:21;;;;;;;3.83;2.70;;;7.80;99.90;;;;;;5098997;28;20541;-78
2023/01/06 06:58:52;;;;;;;4.18;3.10;;;7.90;99.90;;;;;;5113053;28;20234;-78
2023/01/06 07:01:20;;;;;;;9.20;3.70;;;7.90;99.90;;;;;;5112684;28;20584;-77
2023/01/06 07:03:48;;;;;;;4.43;2.65;;;8.00;99.90;;;;;;5112289;28;20229;-77
2023/01/06 07:06:23;;;;;;;8.45;3.42;;;8.00;99.90;;;;;;5113039;28;20238;-77
2023/01/06 07:08:51;;;;;;;5.15;3.97;;;8.00;99.90;;;;;;5112270;28;20230;-77
2023/01/06 07:11:19;;;;;;;6.03;3.22;;;8.00;99.90;;;;;;5097789;28;20231;-76
2023/01/06 07:13:46;;;;;;;6.50;3.25;;;8.00;99.90;;;;;;5112866;28;20219;-76
2023/01/06 07:16:22;;;;;;;5.68;3.28;;;8.00;99.90;;;;;;5111934;28;20248;-78
2023/01/06 07:18:49;;;;;;;4.20;3.80;;;8.10;99.90;;;;;;5113138;28;20301;-76
2023/01/06 07:21:18;;;;;;;6.43;3.35;;;8.10;99.90;;;;;;5098952;28;20241;-76
2023/01/06 07:23:46;;;;;;;6.07;4.43;;;8.10;99.90;;;;;;5105829;28;20234;-77
2023/01/06 07:26:14;;;;;;;7.18;3.20;;;8.00;99.90;;;;;;5117205;28;20721;-78
2023/01/06 07:28:41;;;;;;;4.70;3.70;;;8.00;99.90;;;;;;5116231;28;20222;-78
2023/01/06 07:31:11;;;;;;;8.15;4.38;;;8.00;99.90;;;;;;5116157;28;20226;-78
2023/01/06 07:33:48;;;;;;;9.38;4.15;;;8.00;99.90;;;;;;5116733;28;20314;-78
2023/01/06 07:36:15;;;;;;;6.50;3.85;;;8.00;99.90;;;;;;5115841;28;20226;-78
2023/01/06 07:39:08;;;;;;;6.07;4.35;;;8.00;99.90;;;;;;5105046;28;20289;-78
2023/01/06 07:41:35;;;;;;;7.47;4.97;;;8.00;99.90;;;;;;5116642;28;20233;-78
2023/01/06 07:44:02;;;;;;;7.22;4.13;;;8.00;99.90;;;;;;5115317;28;20659;-77
2023/01/06 07:46:29;;;;;;;6.35;3.85;;;8.00;99.90;;;;;;5100562;28;20354;-78
2023/01/06 07:48:57;;;;;;;4.88;4.18;;;8.00;99.90;;;;;;5115993;28;20700;-78
2023/01/06 07:51:26;;;;;;;7.45;4.50;;;8.00;99.90;;;;;;5114564;28;20611;-78
2023/01/06 07:53:55;;;;;;;6.68;4.78;;;8.00;99.90;;;;;;5115620;28;20230;-78
2023/01/06 07:56:22;;;;;;;8.52;5.55;;;8.10;99.90;;;;;;5115563;28;20242;-77
2023/01/06 07:59:26;;;;;;;8.55;4.93;;;8.10;99.90;;;;;;5104610;28;20226;-78
2023/01/06 08:01:58;;;;;;;6.20;5.13;;;8.20;99.90;;;;;;5115368;28;20218;-77
2023/01/06 08:04:25;;;;;;;6.90;4.70;;;8.20;99.90;;;;;;5104343;28;20273;-77
2023/01/06 08:06:52;;;;;;;9.18;5.28;;;8.20;99.90;;;;;;5114989;28;20218;-77
2023/01/06 08:09:25;;;;;;;6.00;4.72;;;8.20;99.90;;;;;;5106557;28;20241;-77
2023/01/06 08:11:52;;;;;;;7.60;5.35;;;8.30;99.90;;;;;;5102448;28;20612;-78
2023/01/06 08:14:28;;;;;;;11.95;8.52;;;8.30;99.90;;;;;;5114643;28;20218;-77
2023/01/06 08:16:55;;;;;;;8.23;6.85;;;8.40;99.90;;;;;;5114167;28;20232;-76
2023/01/06 08:19:22;;;;;;;9.88;6.63;;;8.40;99.90;;;;;;5106369;28;20227;-76
2023/01/06 08:21:49;;;;;;;11.48;6.30;;;8.40;99.90;;;;;;5113942;28;20258;-78
2023/01/06 08:24:17;;;;;;;7.32;5.72;;;8.40;99.90;;;;;;5114473;28;20250;-78
2023/01/06 08:26:46;;;;;;;9.98;5.80;;;8.50;99.90;;;;;;5102899;28;20731;-77
2023/01/06 08:29:13;;;;;;;7.63;6.80;;;8.50;99.90;;;;;;5114512;28;20349;-77
2023/01/06 08:31:41;;;;;;;7.82;6.25;;;8.50;99.90;;;;;;5115177;28;20249;-77
2023/01/06 08:34:10;;;;;;;7.60;6.40;;;8.50;99.90;;;;;;5113515;28;20314;-77
2023/01/06 08:36:37;;;;;;;10.75;7.50;;;8.50;99.90;;;;;;5114723;28;20214;-77
2023/01/06 08:39:18;;;;;;;11.50;7.50;;;8.40;99.90;;;;;;5114224;28;20222;-77
2023/01/06 08:42:01;;;;;;;7.68;6.88;;;8.40;99.90;;;;;;5114542;28;20269;-77
2023/01/06 08:44:28;;;;;;;8.30;7.07;;;8.50;99.90;;;;;;5114682;28;20250;-78
2023/01/06 08:46:55;;;;;;;7.85;7.05;;;8.50;99.90;;;;;;5114602;28;20223;-78
2023/01/06 08:49:23;;;;;;;8.55;6.75;;;8.50;99.90;;;;;;5114284;28;20265;-78
2023/01/06 08:51:50;;;;;;;8.65;7.38;;;8.60;99.90;;;;;;5114482;28;20223;-78
2023/01/06 08:54:17;;;;;;;21.58;7.20;;;8.60;99.90;;;;;;5113560;28;20223;-77
2023/01/06 08:56:43;;;;;;;7.88;7.07;;;8.60;99.90;;;;;;5101785;28;20799;-77
2023/01/06 08:59:15;;;;;;;11.57;9.27;;;8.60;99.90;;;;;;5113971;28;20272;-78
2023/01/06 09:01:44;;;;;;;9.13;7.68;;;8.70;99.90;;;;;;5114373;28;20226;-77
2023/01/06 09:04:29;;;;;;;14.98;8.38;;;8.70;99.90;;;;;;5114140;28;20564;-78
2023/01/06 09:06:56;;;;;;;9.85;7.03;;;8.70;99.90;;;;;;5105600;28;20279;-78
2023/01/06 09:09:27;;;;;;;14.30;9.10;;;8.70;99.90;;;;;;5113616;28;20657;-79
2023/01/06 09:11:54;;;;;;;8.65;7.30;;;8.80;99.90;;;;;;5102523;28;20230;-78
2023/01/06 09:14:26;;;;;;;9.25;7.53;;;8.80;99.90;;;;;;5112990;28;20241;-78
2023/01/06 09:16:53;;;;;;;15.68;9.07;;;8.80;99.90;;;;;;5113986;28;20676;-77
2023/01/06 09:19:22;;;;;;;9.93;8.00;;;8.90;99.90;;;;;;5113688;28;20309;-77
2023/01/06 09:22:06;;;;;;;12.45;10.00;;;8.90;99.90;;;;;;5112087;28;20306;-78
2023/01/06 09:24:33;;;;;;;9.30;8.15;;;9.00;99.90;;;;;;5100901;28;20230;-78
2023/01/06 09:27:00;;;;;;;10.85;8.85;;;9.00;99.90;;;;;;5113481;28;20250;-78
2023/01/06 09:29:28;;;;;;;11.68;8.50;;;9.00;99.90;;;;;;5101897;28;20621;-77
2023/01/06 09:32:01;;;;;;;12.48;7.40;;;9.00;99.90;;;;;;5114074;28;20249;-78
2023/01/06 09:34:28;;;;;;;9.80;7.25;;;9.10;99.90;;;;;;5112365;28;20310;-79
2023/01/06 09:36:57;;;;;;;8.85;7.85;;;9.10;99.90;;;;;;5113702;28;20567;-78
2023/01/06 09:39:24;;;;;;;12.60;9.50;;;9.10;99.90;;;;;;5113786;28;20268;-78
2023/01/06 09:42:13;;;;;;;10.55;8.30;;;9.20;99.90;;;;;;5113960;28;20233;-79
2023/01/06 09:44:48;;;;;;;15.38;10.15;;;9.20;99.90;;;;;;5113966;28;20242;-79
2023/01/06 09:47:20;;;;;;;13.57;11.65;;;9.30;99.90;;;;;;5102699;28;20244;-79
2023/01/06 09:49:53;;;;;;;10.55;8.50;;;9.40;99.90;;;;;;5112478;28;20230;-79
2023/01/06 09:52:27;;;;;;;9.10;7.43;;;9.40;99.90;;;;;;5100356;28;20617;-78
2023/01/06 09:55:09;;;;;;;;;;;;;;;;;;;;;
2023/01/06 09:57:42;;;;;;;12.65;9.02;;;9.50;99.90;;;;;;5113260;28;20223;-78
2023/01/06 10:00:23;;;;;;;11.45;7.65;;;9.50;99.90;;;;;;5101279;28;20686;-77
2023/01/06 10:02:53;;;;;;;10.85;8.90;;;9.60;99.90;;;;;;5112235;28;20628;-78
2023/01/06 10:05:23;;;;;;;10.75;8.48;;;9.50;99.90;;;;;;5114134;28;20222;-77
2023/01/06 10:08:00;;;;;;;8.57;7.53;;;9.60;99.90;;;;;;5112518;28;20233;-78
2023/01/06 10:10:35;;;;;;;14.50;10.13;;;9.60;99.90;;;;;;5112520;28;20245;-76
2023/01/06 10:13:15;;;;;;;7.50;6.80;;;9.60;99.90;;;;;;5112936;28;20704;-77
2023/01/06 10:15:55;;;;;;;10.63;9.18;;;9.70;99.90;;;;;;5112787;28;20313;-76
2023/01/06 10:18:32;;;;;;;15.82;12.30;;;9.70;99.90;;;;;;5113409;28;20245;-77
2023/01/06 10:21:16;;;;;;;11.63;9.57;;;9.80;99.90;;;;;;5113798;28;20321;-77
2023/01/06 10:24:13;;;;;;;11.80;8.85;;;9.80;99.90;;;;;;5113595;28;20223;-77
2023/01/06 10:26:46;;;;;;;11.43;10.20;;;9.80;99.90;;;;;;5112995;28;20307;-77
2023/01/06 10:29:16;;;;;;;10.25;8.93;;;9.80;99.90;;;;;;5113581;28;20317;-76
2023/01/06 10:31:47;;;;;;;10.27;8.80;;;9.80;99.90;;;;;;5112934;28;20215;-76
2023/01/06 10:34:22;;;;;;;10.93;8.27;;;9.90;99.90;;;;;;5103095;28;20272;-76
2023/01/06 10:36:55;;;;;;;8.23;7.40;;;9.90;99.90;;;;;;5102945;28;20225;-77
2023/01/06 10:39:27;;;;;;;10.52;9.43;;;10.00;99.90;;;;;;5113098;28;20226;-77
2023/01/06 10:44:51;;;;;;;8.98;7.50;;;10.10;99.90;;;;;;5111983;28;20371;-78
2023/01/06 10:47:25;;;;;;;9.20;7.80;;;10.10;99.90;;;;;;5112944;28;20288;-78
2023/01/06 10:49:52;;;;;;;8.95;8.07;;;10.20;99.90;;;;;;5112120;28;20226;-77
2023/01/06 10:52:21;;;;;;;11.60;9.25;;;10.20;99.90;;;;;;5113044;28;20304;-77
2023/01/06 10:54:58;;;;;;;8.63;7.70;;;10.20;99.90;;;;;;5103397;28;20691;-77
2023/01/06 10:57:29;;;;;;;10.80;7.90;;;10.20;99.90;;;;;;5114759;28;20596;-78
2023/01/06 11:00:12;;;;;;;11.90;8.63;;;10.30;99.90;;;;;;5115377;28;20370;-78
2023/01/06 11:02:48;;;;;;;11.02;9.82;;;10.30;99.90;;;;;;5115287;28;20578;-78
2023/01/06 11:05:20;;;;;;;8.93;8.02;;;10.30;99.90;;;;;;5116443;28;20222;-77
2023/01/06 11:07:55;;;;;;;13.38;8.52;;;10.40;99.90;;;;;;5105045;28;20245;-78
2023/01/06 11:10:31;;;;;;;10.30;8.07;;;10.40;99.90;;;;;;5115279;28;20255;-77
2023/01/06 11:13:00;;;;;;;10.32;9.15;;;10.50;99.90;;;;;;5114986;28;20218;-78
2023/01/06 11:15:36;;;;;;;10.90;9.43;;;10.50;99.90;;;;;;5116265;28;20284;-78
2023/01/06 11:18:21;;;;;;;9.25;7.90;;;10.60;99.90;;;;;;5115541;28;20214;-77
2023/01/06 11:21:08;;;;;;;10.80;9.35;;;10.60;99.90;;;;;;5114756;28;20623;-78
2023/01/06 11:23:38;;;;;;;10.73;7.93;;;10.70;99.90;;;;;;5116301;28;20268;-79
2023/01/06 11:26:12;;;;;;;8.98;8.10;;;10.70;99.90;;;;;;5105645;28;20225;-77
2023/01/06 11:28:40;;;;;;;9.98;8.52;;;10.70;99.90;;;;;;5115800;28;20221;-77
2023/01/06 11:31:18;;;;;;;13.15;9.20;;;10.70;99.90;;;;;;5105288;28;20722;-78
2023/01/06 11:33:50;;;;;;;9.25;7.60;;;10.70;99.90;;;;;;5115581;28;20688;-78
2023/01/06 11:36:22;;;;;;;9.07;7.88;;;10.80;99.90;;;;;;5115194;28;20222;-78
2023/01/06 11:38:52;;;;;;;9.65;8.25;;;10.80;99.90;;;;;;5116222;28;20695;-78
2023/01/06 11:41:28;;;;;;;8.50;7.47;;;10.80;99.90;;;;;;5115512;28;20247;-78
2023/01/06 11:44:04;;;;;;;13.23;9.00;;;10.80;99.90;;;;;;5114788;28;20238;-78
2023/01/06 11:46:31;;;;;;;9.93;7.78;;;10.90;99.90;;;;;;5115646;28;20234;-78
2023/01/06 11:49:03;;;;;;;9.70;7.70;;;10.80;99.90;;;;;;5115130;28;20257;-78
2023/01/06 11:51:53;;;;;;;8.52;7.40;;;10.90;99.90;;;;;;5116586;28;20687;-78
2023/01/06 11:54:25;;;;;;;10.27;7.45;;;10.90;99.90;;;;;;5105960;28;20613;-77
2023/01/06 11:57:00;;;;;;;8.15;7.35;;;10.90;99.90;;;;;;5116429;28;20230;-78
2023/01/06 11:59:38;;;;;;;11.57;7.97;;;10.90;99.90;;;;;;5115549;28;20321;-77
2023/01/06 12:02:17;;;;;;;7.97;7.00;;;10.90;99.90;;;;;;5115647;28;20230;-78
2023/01/06 12:04:50;;;;;;;7.88;6.85;;;10.90;99.90;;;;;;5115520;28;20227;-77
2023/01/06 12:07:33;;;;;;;9.55;7.63;;;10.90;99.90;;;;;;5114569;28;20635;-77
2023/01/06 12:10:05;;;;;;;8.55;6.95;;;11.00;99.90;;;;;;5113633;28;20226;-77
2023/01/06 12:12:39;;;;;;;12.60;8.73;;;11.00;99.90;;;;;;5104636;28;20291;-78
2023/01/06 12:15:12;;;;;;;8.35;7.60;;;11.00;99.90;;;;;;5114332;28;20210;-78
2023/01/06 12:17:44;;;;;;;11.32;7.35;;;11.00;99.90;;;;;;5115553;28;20601;-78
2023/01/06 12:20:18;;;;;;;9.10;7.82;;;11.00;99.90;;;;;;5104383;28;20691;-79
2023/01/06 12:22:51;;;;;;;8.20;7.40;;;11.00;99.90;;;;;;5100046;28;20253;-78
2023/01/06 12:25:23;;;;;;;8.75;6.50;;;11.10;99.90;;;;;;5114411;28;20691;-78
2023/01/06 12:27:55;;;;;;;11.82;7.82;;;11.20;99.90;;;;;;5115156;28;20672;-79
2023/01/06 12:30:32;;;;;;;7.05;5.90;;;11.20;99.90;;;;;;5114665;28;20238;-77
2023/01/06 12:33:09;;;;;;;6.50;5.90;;;11.20;99.90;;;;;;5114705;28;20218;-78
2023/01/06 12:35:43;;;;;;;15.95;11.05;;;11.20;99.90;;;;;;5114790;28;20241;-78
2023/01/06 12:38:18;;;;;;;13.20;8.95;;;11.30;99.90;;;;;;5114903;28;20223;-78
2023/01/06 12:40:52;;;;;;;11.73;8.85;;;11.30;99.90;;;;;;5113720;28;20230;-77
2023/01/06 12:43:28;;;;;;;7.10;6.03;;;11.30;99.90;;;;;;5104028;28;20295;-78
2023/01/06 12:45:59;;;;;;;6.88;6.18;;;11.40;99.90;;;;;;5114042;28;20229;-78
2023/01/06 12:48:36;;;;;;;5.90;5.35;;;11.40;99.90;;;;;;5114741;28;20241;-78
2023/01/06 12:51:11;;;;;;;9.32;5.30;;;11.40;99.90;;;;;;5113520;28;20233;-78
2023/01/06 12:53:43;;;;;;;11.18;6.45;;;11.50;99.90;;;;;;5114972;28;20291;-77
2023/01/06 12:56:31;;;;;;;6.78;4.47;;;11.50;99.90;;;;;;5113131;28;20493;-77
2023/01/06 12:59:12;;;;;;;3.78;3.38;;;11.50;99.90;;;;;;5112128;28;20289;-78
2023/01/06 13:01:45;;;;;;;6.88;4.95;;;11.50;99.90;;;;;;5103597;28;20226;-78
2023/01/06 13:04:43;;;;;;;5.72;4.40;;;11.60;99.90;;;;;;5096213;28;20556;-78
2023/01/06 13:07:25;;;;;;;4.20;3.80;;;11.60;99.90;;;;;;5114790;28;20846;-78
2023/01/06 13:10:07;;;;;;;4.63;3.85;;;11.60;99.90;;;;;;5114217;28;20579;-78
2023/01/06 13:13:05;;;;;;;5.60;3.97;;;11.70;99.90;;;;;;5112649;28;20270;-77
2023/01/06 13:15:41;;;;;;;5.22;3.47;;;11.70;99.90;;;;;;5114197;28;20591;-77
2023/01/06 13:18:13;;;;;;;3.00;2.75;;;11.70;99.90;;;;;;5113453;28;20218;-77
2023/01/06 13:20:46;;;;;;;4.55;3.60;;;11.70;99.90;;;;;;5112678;28;20260;-77
2023/01/06 13:23:36;;;;;;;2.80;2.50;;;11.70;99.90;;;;;;5114175;28;20215;-78
2023/01/06 13:26:27;;;;;;;5.55;3.67;;;11.80;99.90;;;;;;5112322;28;20258;-77
2023/01/06 13:29:14;;;;;;;5.72;3.17;;;11.80;99.90;;;;;;5112960;28;20309;-78
2023/01/06 13:32:02;;;;;;;3.38;2.80;;;11.80;99.90;;;;;;5114111;28;20251;-78
2023/01/06 13:35:11;;;;;;;3.47;2.13;;;11.80;99.90;;;;;;5114197;28;20595;-79